sensor_id;sensor_type;location;lat;lon;timestamp;temperature;humidity
78455;SHT31;67751;51.986;5.696;2023-12-20T00:01:50;9.6;74.9
78455;SHT31;67751;51.986;5.696;2023-12-20T00:04:19;9.6;75.1
78455;SHT31;67751;51.986;5.696;2023-12-20T00:06:49;9.6;75.0
78455;SHT31;67751;51.986;5.696;2023-12-20T00:09:19;9.6;75.5
78455;SHT31;67751;51.986;5.696;2023-12-20T00:11:49;9.6;75.7
78455;SHT31;67751;51.986;5.696;2023-12-20T00:14:18;9.6;75.4
78455;SHT31;67751;51.986;5.696;2023-12-20T00:16:48;9.6;75.5
78455;SHT31;67751;51.986;5.696;2023-12-20T00:19:17;9.6;75.4
78455;SHT31;67751;51.986;5.696;2023-12-20T00:21:49;9.6;75.2
78455;SHT31;67751;51.986;5.696;2023-12-20T00:24:18;9.6;75.2
78455;SHT31;67751;51.986;5.696;2023-12-20T00:26:48;9.6;75.0
78455;SHT31;67751;51.986;5.696;2023-12-20T00:29:17;9.5;75.2
78455;SHT31;67751;51.986;5.696;2023-12-20T00:31:47;9.5;74.6
78455;SHT31;67751;51.986;5.696;2023-12-20T00:34:16;9.5;75.0
78455;SHT31;67751;51.986;5.696;2023-12-20T00:36:46;9.5;74.8
78455;SHT31;67751;51.986;5.696;2023-12-20T00:39:15;9.5;74.8
78455;SHT31;67751;51.986;5.696;2023-12-20T00:41:45;9.5;74.8
78455;SHT31;67751;51.986;5.696;2023-12-20T00:44:15;9.4;74.2
78455;SHT31;67751;51.986;5.696;2023-12-20T00:46:44;9.4;74.7
78455;SHT31;67751;51.986;5.696;2023-12-20T00:49:13;9.4;74.7
78455;SHT31;67751;51.986;5.696;2023-12-20T00:51:43;9.4;74.1
78455;SHT31;67751;51.986;5.696;2023-12-20T00:54:14;9.4;74.3
78455;SHT31;67751;51.986;5.696;2023-12-20T00:56:44;9.4;74.3
78455;SHT31;67751;51.986;5.696;2023-12-20T00:59:13;9.4;73.9
78455;SHT31;67751;51.986;5.696;2023-12-20T01:01:43;9.4;73.7
78455;SHT31;67751;51.986;5.696;2023-12-20T01:04:13;9.3;73.8
78455;SHT31;67751;51.986;5.696;2023-12-20T01:06:42;9.3;74.0
78455;SHT31;67751;51.986;5.696;2023-12-20T01:09:12;9.3;73.8
78455;SHT31;67751;51.986;5.696;2023-12-20T01:11:41;9.3;73.9
78455;SHT31;67751;51.986;5.696;2023-12-20T01:14:11;9.3;74.1
78455;SHT31;67751;51.986;5.696;2023-12-20T01:16:41;9.2;74.2
78455;SHT31;67751;51.986;5.696;2023-12-20T01:19:10;9.2;74.3
78455;SHT31;67751;51.986;5.696;2023-12-20T01:21:40;9.2;74.3
78455;SHT31;67751;51.986;5.696;2023-12-20T01:24:10;9.2;74.1
78455;SHT31;67751;51.986;5.696;2023-12-20T01:26:39;9.2;74.4
78455;SHT31;67751;51.986;5.696;2023-12-20T01:29:09;9.1;74.4
78455;SHT31;67751;51.986;5.696;2023-12-20T01:31:39;9.1;74.0
78455;SHT31;67751;51.986;5.696;2023-12-20T01:34:09;9.1;73.7
78455;SHT31;67751;51.986;5.696;2023-12-20T01:36:39;9.1;74.2
78455;SHT31;67751;51.986;5.696;2023-12-20T01:39:08;9.1;74.2
78455;SHT31;67751;51.986;5.696;2023-12-20T01:41:38;9.1;73.9
78455;SHT31;67751;51.986;5.696;2023-12-20T01:44:07;9.0;74.2
78455;SHT31;67751;51.986;5.696;2023-12-20T01:46:37;9.0;74.2
78455;SHT31;67751;51.986;5.696;2023-12-20T01:49:08;9.0;74.4
78455;SHT31;67751;51.986;5.696;2023-12-20T01:51:38;9.0;74.4
78455;SHT31;67751;51.986;5.696;2023-12-20T01:54:08;9.0;74.4
78455;SHT31;67751;51.986;5.696;2023-12-20T01:56:40;9.0;74.6
78455;SHT31;67751;51.986;5.696;2023-12-20T01:59:10;8.9;74.2
78455;SHT31;67751;51.986;5.696;2023-12-20T02:01:41;8.9;74.4
78455;SHT31;67751;51.986;5.696;2023-12-20T02:04:11;8.9;74.7
78455;SHT31;67751;51.986;5.696;2023-12-20T02:06:42;8.9;75.1
78455;SHT31;67751;51.986;5.696;2023-12-20T02:09:13;8.9;75.1
78455;SHT31;67751;51.986;5.696;2023-12-20T02:11:43;8.9;75.4
78455;SHT31;67751;51.986;5.696;2023-12-20T02:14:13;8.9;75.8
78455;SHT31;67751;51.986;5.696;2023-12-20T02:16:43;8.9;76.0
78455;SHT31;67751;51.986;5.696;2023-12-20T02:19:14;8.9;75.7
78455;SHT31;67751;51.986;5.696;2023-12-20T02:21:45;8.9;75.5
78455;SHT31;67751;51.986;5.696;2023-12-20T02:24:15;8.9;75.6
78455;SHT31;67751;51.986;5.696;2023-12-20T02:26:45;8.9;75.6
78455;SHT31;67751;51.986;5.696;2023-12-20T02:29:16;8.9;75.6
78455;SHT31;67751;51.986;5.696;2023-12-20T02:31:46;8.9;75.5
78455;SHT31;67751;51.986;5.696;2023-12-20T02:34:15;8.9;75.9
78455;SHT31;67751;51.986;5.696;2023-12-20T02:36:45;8.9;75.9
78455;SHT31;67751;51.986;5.696;2023-12-20T02:39:14;9.0;76.2
78455;SHT31;67751;51.986;5.696;2023-12-20T02:41:44;9.0;76.1
78455;SHT31;67751;51.986;5.696;2023-12-20T02:44:14;9.0;76.5
78455;SHT31;67751;51.986;5.696;2023-12-20T02:46:43;9.0;76.3
78455;SHT31;67751;51.986;5.696;2023-12-20T02:49:13;9.0;76.3
78455;SHT31;67751;51.986;5.696;2023-12-20T02:51:43;9.0;76.3
78455;SHT31;67751;51.986;5.696;2023-12-20T02:54:14;9.0;76.6
78455;SHT31;67751;51.986;5.696;2023-12-20T02:56:43;9.0;76.5
78455;SHT31;67751;51.986;5.696;2023-12-20T02:59:15;9.0;76.0
78455;SHT31;67751;51.986;5.696;2023-12-20T03:01:46;9.0;76.0
78455;SHT31;67751;51.986;5.696;2023-12-20T03:04:15;9.0;75.8
78455;SHT31;67751;51.986;5.696;2023-12-20T03:06:45;9.0;75.6
78455;SHT31;67751;51.986;5.696;2023-12-20T03:09:14;9.0;75.2
78455;SHT31;67751;51.986;5.696;2023-12-20T03:11:44;9.0;75.5
78455;SHT31;67751;51.986;5.696;2023-12-20T03:14:14;9.0;75.3
78455;SHT31;67751;51.986;5.696;2023-12-20T03:16:46;9.0;75.6
78455;SHT31;67751;51.986;5.696;2023-12-20T03:19:17;9.0;75.4
78455;SHT31;67751;51.986;5.696;2023-12-20T03:21:50;9.0;75.4
78455;SHT31;67751;51.986;5.696;2023-12-20T03:24:21;9.0;75.4
78455;SHT31;67751;51.986;5.696;2023-12-20T03:26:52;8.9;75.8
78455;SHT31;67751;51.986;5.696;2023-12-20T03:29:21;8.9;75.6
78455;SHT31;67751;51.986;5.696;2023-12-20T03:31:51;8.9;75.6
78455;SHT31;67751;51.986;5.696;2023-12-20T03:34:20;8.9;75.8
78455;SHT31;67751;51.986;5.696;2023-12-20T03:36:50;8.9;76.0
78455;SHT31;67751;51.986;5.696;2023-12-20T03:39:19;8.9;76.0
78455;SHT31;67751;51.986;5.696;2023-12-20T03:41:49;8.9;75.9
78455;SHT31;67751;51.986;5.696;2023-12-20T03:44:18;8.9;76.0
78455;SHT31;67751;51.986;5.696;2023-12-20T03:46:48;8.9;76.1
78455;SHT31;67751;51.986;5.696;2023-12-20T03:49:18;8.9;76.2
78455;SHT31;67751;51.986;5.696;2023-12-20T03:51:48;8.9;76.2
78455;SHT31;67751;51.986;5.696;2023-12-20T03:54:17;8.9;76.2
78455;SHT31;67751;51.986;5.696;2023-12-20T03:56:47;8.9;76.3
78455;SHT31;67751;51.986;5.696;2023-12-20T03:59:17;8.9;76.6
78455;SHT31;67751;51.986;5.696;2023-12-20T04:01:47;8.9;76.4
78455;SHT31;67751;51.986;5.696;2023-12-20T04:04:16;8.9;76.6
78455;SHT31;67751;51.986;5.696;2023-12-20T04:06:46;8.9;76.3
78455;SHT31;67751;51.986;5.696;2023-12-20T04:09:16;8.9;76.3
78455;SHT31;67751;51.986;5.696;2023-12-20T04:11:45;8.9;76.2
78455;SHT31;67751;51.986;5.696;2023-12-20T04:14:15;8.9;76.4
78455;SHT31;67751;51.986;5.696;2023-12-20T04:16:44;8.9;76.6
78455;SHT31;67751;51.986;5.696;2023-12-20T04:19:14;8.9;76.8
78455;SHT31;67751;51.986;5.696;2023-12-20T04:21:43;8.9;76.6
78455;SHT31;67751;51.986;5.696;2023-12-20T04:24:13;8.9;76.6
78455;SHT31;67751;51.986;5.696;2023-12-20T04:26:43;8.9;76.8
78455;SHT31;67751;51.986;5.696;2023-12-20T04:29:12;8.9;76.9
78455;SHT31;67751;51.986;5.696;2023-12-20T04:31:42;9.0;76.8
78455;SHT31;67751;51.986;5.696;2023-12-20T04:34:11;9.0;77.1
78455;SHT31;67751;51.986;5.696;2023-12-20T04:36:41;9.0;77.1
78455;SHT31;67751;51.986;5.696;2023-12-20T04:39:12;9.0;77.2
78455;SHT31;67751;51.986;5.696;2023-12-20T04:41:42;9.0;77.2
78455;SHT31;67751;51.986;5.696;2023-12-20T04:44:12;9.0;77.2
78455;SHT31;67751;51.986;5.696;2023-12-20T04:46:41;9.1;77.2
78455;SHT31;67751;51.986;5.696;2023-12-20T04:49:13;9.1;77.2
78455;SHT31;67751;51.986;5.696;2023-12-20T04:51:43;9.1;77.3
78455;SHT31;67751;51.986;5.696;2023-12-20T04:54:12;9.1;77.1
78455;SHT31;67751;51.986;5.696;2023-12-20T04:56:42;9.1;77.3
78455;SHT31;67751;51.986;5.696;2023-12-20T04:59:11;9.1;77.4
78455;SHT31;67751;51.986;5.696;2023-12-20T05:01:41;9.1;77.3
78455;SHT31;67751;51.986;5.696;2023-12-20T05:04:10;9.1;77.2
78455;SHT31;67751;51.986;5.696;2023-12-20T05:06:40;9.1;77.3
78455;SHT31;67751;51.986;5.696;2023-12-20T05:09:09;9.1;77.4
78455;SHT31;67751;51.986;5.696;2023-12-20T05:11:39;9.1;77.4
78455;SHT31;67751;51.986;5.696;2023-12-20T05:14:08;9.1;77.3
78455;SHT31;67751;51.986;5.696;2023-12-20T05:16:38;9.1;77.3
78455;SHT31;67751;51.986;5.696;2023-12-20T05:19:08;9.2;77.6
78455;SHT31;67751;51.986;5.696;2023-12-20T05:21:37;9.2;77.7
78455;SHT31;67751;51.986;5.696;2023-12-20T05:24:07;9.2;77.8
78455;SHT31;67751;51.986;5.696;2023-12-20T05:26:36;9.2;77.4
78455;SHT31;67751;51.986;5.696;2023-12-20T05:29:08;9.2;77.8
78455;SHT31;67751;51.986;5.696;2023-12-20T05:31:37;9.2;77.6
78455;SHT31;67751;51.986;5.696;2023-12-20T05:34:07;9.2;77.4
78455;SHT31;67751;51.986;5.696;2023-12-20T05:36:37;9.3;77.3
78455;SHT31;67751;51.986;5.696;2023-12-20T05:39:06;9.3;77.5
78455;SHT31;67751;51.986;5.696;2023-12-20T05:41:38;9.3;77.2
78455;SHT31;67751;51.986;5.696;2023-12-20T05:44:07;9.3;77.3
78455;SHT31;67751;51.986;5.696;2023-12-20T05:46:38;9.3;77.3
78455;SHT31;67751;51.986;5.696;2023-12-20T05:49:07;9.3;77.5
78455;SHT31;67751;51.986;5.696;2023-12-20T05:51:38;9.3;77.1
78455;SHT31;67751;51.986;5.696;2023-12-20T05:54:08;9.3;77.2
78455;SHT31;67751;51.986;5.696;2023-12-20T05:56:38;9.3;77.1
78455;SHT31;67751;51.986;5.696;2023-12-20T05:59:08;9.3;77.3
78455;SHT31;67751;51.986;5.696;2023-12-20T06:01:38;9.3;77.1
78455;SHT31;67751;51.986;5.696;2023-12-20T06:04:07;9.3;77.3
78455;SHT31;67751;51.986;5.696;2023-12-20T06:06:42;9.4;77.1
78455;SHT31;67751;51.986;5.696;2023-12-20T06:09:12;9.4;77.1
78455;SHT31;67751;51.986;5.696;2023-12-20T06:11:42;9.3;77.1
78455;SHT31;67751;51.986;5.696;2023-12-20T06:14:12;9.3;77.2
78455;SHT31;67751;51.986;5.696;2023-12-20T06:16:41;9.3;77.3
78455;SHT31;67751;51.986;5.696;2023-12-20T06:19:12;9.3;76.7
78455;SHT31;67751;51.986;5.696;2023-12-20T06:21:42;9.3;77.2
78455;SHT31;67751;51.986;5.696;2023-12-20T06:24:11;9.3;76.8
78455;SHT31;67751;51.986;5.696;2023-12-20T06:26:41;9.4;77.2
78455;SHT31;67751;51.986;5.696;2023-12-20T06:29:12;9.4;77.0
78455;SHT31;67751;51.986;5.696;2023-12-20T06:31:42;9.4;77.1
78455;SHT31;67751;51.986;5.696;2023-12-20T06:34:12;9.4;77.2
78455;SHT31;67751;51.986;5.696;2023-12-20T06:36:41;9.4;77.2
78455;SHT31;67751;51.986;5.696;2023-12-20T06:39:13;9.4;76.7
78455;SHT31;67751;51.986;5.696;2023-12-20T06:41:42;9.4;77.3
78455;SHT31;67751;51.986;5.696;2023-12-20T06:44:12;9.4;76.4
78455;SHT31;67751;51.986;5.696;2023-12-20T06:46:41;9.4;76.5
78455;SHT31;67751;51.986;5.696;2023-12-20T06:49:11;9.3;76.8
78455;SHT31;67751;51.986;5.696;2023-12-20T06:51:40;9.3;76.9
78455;SHT31;67751;51.986;5.696;2023-12-20T06:54:10;9.3;77.0
78455;SHT31;67751;51.986;5.696;2023-12-20T06:56:39;9.3;77.2
78455;SHT31;67751;51.986;5.696;2023-12-20T06:59:09;9.3;77.3
78455;SHT31;67751;51.986;5.696;2023-12-20T07:01:39;9.3;77.1
78455;SHT31;67751;51.986;5.696;2023-12-20T07:04:08;9.3;76.9
78455;SHT31;67751;51.986;5.696;2023-12-20T07:06:38;9.3;77.0
78455;SHT31;67751;51.986;5.696;2023-12-20T07:09:07;9.3;77.1
78455;SHT31;67751;51.986;5.696;2023-12-20T07:11:37;9.3;77.1
78455;SHT31;67751;51.986;5.696;2023-12-20T07:14:07;9.3;77.1
78455;SHT31;67751;51.986;5.696;2023-12-20T07:16:36;9.3;77.3
78455;SHT31;67751;51.986;5.696;2023-12-20T07:19:06;9.3;77.5
78455;SHT31;67751;51.986;5.696;2023-12-20T07:21:35;9.3;77.4
78455;SHT31;67751;51.986;5.696;2023-12-20T07:24:05;9.3;77.3
78455;SHT31;67751;51.986;5.696;2023-12-20T07:26:35;9.3;77.6
78455;SHT31;67751;51.986;5.696;2023-12-20T07:29:05;9.3;77.2
78455;SHT31;67751;51.986;5.696;2023-12-20T07:31:35;9.3;77.1
78455;SHT31;67751;51.986;5.696;2023-12-20T07:34:05;9.3;77.1
78455;SHT31;67751;51.986;5.696;2023-12-20T07:36:37;9.3;76.8
78455;SHT31;67751;51.986;5.696;2023-12-20T07:39:06;9.3;77.4
78455;SHT31;67751;51.986;5.696;2023-12-20T07:41:36;9.3;77.4
78455;SHT31;67751;51.986;5.696;2023-12-20T07:44:08;9.3;77.2
78455;SHT31;67751;51.986;5.696;2023-12-20T07:46:38;9.3;77.6
78455;SHT31;67751;51.986;5.696;2023-12-20T07:49:08;9.3;77.9
78455;SHT31;67751;51.986;5.696;2023-12-20T07:51:38;9.3;78.2
78455;SHT31;67751;51.986;5.696;2023-12-20T07:54:08;9.3;77.8
78455;SHT31;67751;51.986;5.696;2023-12-20T07:56:37;9.3;77.8
78455;SHT31;67751;51.986;5.696;2023-12-20T07:59:07;9.3;77.7
78455;SHT31;67751;51.986;5.696;2023-12-20T08:01:37;9.3;77.9
78455;SHT31;67751;51.986;5.696;2023-12-20T08:04:07;9.3;78.0
78455;SHT31;67751;51.986;5.696;2023-12-20T08:06:37;9.3;77.8
78455;SHT31;67751;51.986;5.696;2023-12-20T08:09:06;9.3;77.9
78455;SHT31;67751;51.986;5.696;2023-12-20T08:11:36;9.3;77.9
78455;SHT31;67751;51.986;5.696;2023-12-20T08:14:05;9.3;77.6
78455;SHT31;67751;51.986;5.696;2023-12-20T08:16:35;9.3;78.0
78455;SHT31;67751;51.986;5.696;2023-12-20T08:19:04;9.4;77.9
78455;SHT31;67751;51.986;5.696;2023-12-20T08:21:35;9.4;78.2
78455;SHT31;67751;51.986;5.696;2023-12-20T08:24:05;9.4;77.4
78455;SHT31;67751;51.986;5.696;2023-12-20T08:26:34;9.4;77.5
78455;SHT31;67751;51.986;5.696;2023-12-20T08:29:04;9.4;77.3
78455;SHT31;67751;51.986;5.696;2023-12-20T08:31:34;9.4;77.1
78455;SHT31;67751;51.986;5.696;2023-12-20T08:34:03;9.4;77.6
78455;SHT31;67751;51.986;5.696;2023-12-20T08:36:33;9.4;77.4
78455;SHT31;67751;51.986;5.696;2023-12-20T08:39:02;9.4;77.4
78455;SHT31;67751;51.986;5.696;2023-12-20T08:41:35;9.4;77.8
78455;SHT31;67751;51.986;5.696;2023-12-20T08:44:05;9.4;77.5
78455;SHT31;67751;51.986;5.696;2023-12-20T08:46:34;9.4;77.6
78455;SHT31;67751;51.986;5.696;2023-12-20T08:49:04;9.4;77.6
78455;SHT31;67751;51.986;5.696;2023-12-20T08:51:34;9.5;77.2
78455;SHT31;67751;51.986;5.696;2023-12-20T08:54:07;9.5;77.6
78455;SHT31;67751;51.986;5.696;2023-12-20T08:56:37;9.5;77.3
78455;SHT31;67751;51.986;5.696;2023-12-20T08:59:07;9.5;77.3
78455;SHT31;67751;51.986;5.696;2023-12-20T09:01:36;9.5;77.1
78455;SHT31;67751;51.986;5.696;2023-12-20T09:04:06;9.5;77.0
78455;SHT31;67751;51.986;5.696;2023-12-20T09:06:36;9.5;77.1
78455;SHT31;67751;51.986;5.696;2023-12-20T09:09:05;9.5;76.4
78455;SHT31;67751;51.986;5.696;2023-12-20T09:11:37;9.5;76.8
78455;SHT31;67751;51.986;5.696;2023-12-20T09:14:07;9.5;77.2
78455;SHT31;67751;51.986;5.696;2023-12-20T09:16:36;9.5;77.2
78455;SHT31;67751;51.986;5.696;2023-12-20T09:19:06;9.5;77.7
78455;SHT31;67751;51.986;5.696;2023-12-20T09:21:35;9.5;78.0
78455;SHT31;67751;51.986;5.696;2023-12-20T09:24:05;9.5;78.1
78455;SHT31;67751;51.986;5.696;2023-12-20T09:26:36;9.5;77.6
78455;SHT31;67751;51.986;5.696;2023-12-20T09:29:07;9.5;77.7
78455;SHT31;67751;51.986;5.696;2023-12-20T09:31:38;9.5;78.1
78455;SHT31;67751;51.986;5.696;2023-12-20T09:34:07;9.5;77.9
78455;SHT31;67751;51.986;5.696;2023-12-20T09:36:37;9.5;78.2
78455;SHT31;67751;51.986;5.696;2023-12-20T09:39:09;9.5;78.3
78455;SHT31;67751;51.986;5.696;2023-12-20T09:41:45;9.5;78.3
78455;SHT31;67751;51.986;5.696;2023-12-20T09:44:16;9.5;78.5
78455;SHT31;67751;51.986;5.696;2023-12-20T09:46:49;9.5;78.7
78455;SHT31;67751;51.986;5.696;2023-12-20T09:49:23;9.5;78.6
78455;SHT31;67751;51.986;5.696;2023-12-20T09:51:54;9.5;78.7
78455;SHT31;67751;51.986;5.696;2023-12-20T09:54:24;9.5;78.7
78455;SHT31;67751;51.986;5.696;2023-12-20T09:56:54;9.5;78.8
78455;SHT31;67751;51.986;5.696;2023-12-20T09:59:24;9.5;79.1
78455;SHT31;67751;51.986;5.696;2023-12-20T10:01:57;9.5;79.2
78455;SHT31;67751;51.986;5.696;2023-12-20T10:04:30;9.5;79.2
78455;SHT31;67751;51.986;5.696;2023-12-20T10:07:04;9.5;79.0
78455;SHT31;67751;51.986;5.696;2023-12-20T10:09:34;9.6;78.9
78455;SHT31;67751;51.986;5.696;2023-12-20T10:12:04;9.6;79.0
78455;SHT31;67751;51.986;5.696;2023-12-20T10:14:37;9.6;79.0
78455;SHT31;67751;51.986;5.696;2023-12-20T10:17:07;9.6;78.9
78455;SHT31;67751;51.986;5.696;2023-12-20T10:19:37;9.6;79.0
78455;SHT31;67751;51.986;5.696;2023-12-20T10:22:07;9.7;78.5
78455;SHT31;67751;51.986;5.696;2023-12-20T10:24:37;9.7;78.7
78455;SHT31;67751;51.986;5.696;2023-12-20T10:27:08;9.7;78.8
78455;SHT31;67751;51.986;5.696;2023-12-20T10:29:38;9.7;78.3
78455;SHT31;67751;51.986;5.696;2023-12-20T10:32:24;9.7;78.6
78455;SHT31;67751;51.986;5.696;2023-12-20T10:34:55;9.8;78.7
78455;SHT31;67751;51.986;5.696;2023-12-20T10:37:26;9.8;78.8
78455;SHT31;67751;51.986;5.696;2023-12-20T10:39:59;9.8;78.5
78455;SHT31;67751;51.986;5.696;2023-12-20T10:42:32;9.8;78.3
78455;SHT31;67751;51.986;5.696;2023-12-20T10:45:06;9.9;78.4
78455;SHT31;67751;51.986;5.696;2023-12-20T10:47:39;9.9;78.6
78455;SHT31;67751;51.986;5.696;2023-12-20T10:50:10;9.9;78.4
78455;SHT31;67751;51.986;5.696;2023-12-20T10:52:40;9.9;78.7
78455;SHT31;67751;51.986;5.696;2023-12-20T10:55:11;9.9;78.1
78455;SHT31;67751;51.986;5.696;2023-12-20T10:57:42;10.0;78.1
78455;SHT31;67751;51.986;5.696;2023-12-20T11:00:18;10.0;78.0
78455;SHT31;67751;51.986;5.696;2023-12-20T11:02:50;10.0;78.5
78455;SHT31;67751;51.986;5.696;2023-12-20T11:05:35;10.0;78.8
78455;SHT31;67751;51.986;5.696;2023-12-20T11:08:06;10.0;78.8
78455;SHT31;67751;51.986;5.696;2023-12-20T11:10:51;10.0;78.9
78455;SHT31;67751;51.986;5.696;2023-12-20T11:13:26;10.1;78.8
78455;SHT31;67751;51.986;5.696;2023-12-20T11:15:56;10.1;78.9
78455;SHT31;67751;51.986;5.696;2023-12-20T11:18:30;10.1;78.3
78455;SHT31;67751;51.986;5.696;2023-12-20T11:21:04;10.1;76.8
78455;SHT31;67751;51.986;5.696;2023-12-20T11:23:36;10.1;75.9
78455;SHT31;67751;51.986;5.696;2023-12-20T11:26:07;10.1;77.2
78455;SHT31;67751;51.986;5.696;2023-12-20T11:28:36;10.2;76.7
78455;SHT31;67751;51.986;5.696;2023-12-20T11:31:06;10.2;77.1
78455;SHT31;67751;51.986;5.696;2023-12-20T11:33:38;10.2;77.4
78455;SHT31;67751;51.986;5.696;2023-12-20T11:36:18;10.2;77.2
78455;SHT31;67751;51.986;5.696;2023-12-20T11:38:56;10.2;77.7
78455;SHT31;67751;51.986;5.696;2023-12-20T11:41:27;10.3;76.8
78455;SHT31;67751;51.986;5.696;2023-12-20T11:43:57;10.3;75.6
78455;SHT31;67751;51.986;5.696;2023-12-20T11:46:28;10.3;76.7
78455;SHT31;67751;51.986;5.696;2023-12-20T11:48:58;10.3;76.5
78455;SHT31;67751;51.986;5.696;2023-12-20T11:51:27;10.3;76.0
78455;SHT31;67751;51.986;5.696;2023-12-20T11:53:57;10.3;76.9
78455;SHT31;67751;51.986;5.696;2023-12-20T11:56:26;10.3;76.6
78455;SHT31;67751;51.986;5.696;2023-12-20T11:58:56;10.3;75.9
78455;SHT31;67751;51.986;5.696;2023-12-20T12:01:28;10.3;76.1
78455;SHT31;67751;51.986;5.696;2023-12-20T12:04:04;10.3;75.8
78455;SHT31;67751;51.986;5.696;2023-12-20T12:06:34;10.4;76.1
78455;SHT31;67751;51.986;5.696;2023-12-20T12:09:03;10.4;74.9
78455;SHT31;67751;51.986;5.696;2023-12-20T12:11:33;10.4;74.4
78455;SHT31;67751;51.986;5.696;2023-12-20T12:14:03;10.4;74.3
78455;SHT31;67751;51.986;5.696;2023-12-20T12:16:33;10.4;75.4
78455;SHT31;67751;51.986;5.696;2023-12-20T12:19:03;10.4;75.9
78455;SHT31;67751;51.986;5.696;2023-12-20T12:21:33;10.4;76.5
78455;SHT31;67751;51.986;5.696;2023-12-20T12:24:09;10.5;76.0
78455;SHT31;67751;51.986;5.696;2023-12-20T12:26:39;10.5;76.5
78455;SHT31;67751;51.986;5.696;2023-12-20T12:29:09;10.5;76.2
78455;SHT31;67751;51.986;5.696;2023-12-20T12:31:39;10.5;76.1
78455;SHT31;67751;51.986;5.696;2023-12-20T12:34:09;10.6;75.6
78455;SHT31;67751;51.986;5.696;2023-12-20T12:36:39;10.6;75.4
78455;SHT31;67751;51.986;5.696;2023-12-20T12:39:12;10.6;74.5
78455;SHT31;67751;51.986;5.696;2023-12-20T12:41:43;10.6;76.2
78455;SHT31;67751;51.986;5.696;2023-12-20T12:44:13;10.6;74.7
78455;SHT31;67751;51.986;5.696;2023-12-20T12:46:42;10.6;75.4
78455;SHT31;67751;51.986;5.696;2023-12-20T12:49:12;10.6;75.9
78455;SHT31;67751;51.986;5.696;2023-12-20T12:51:44;10.6;75.8
78455;SHT31;67751;51.986;5.696;2023-12-20T12:54:14;10.6;75.3
78455;SHT31;67751;51.986;5.696;2023-12-20T12:56:46;10.6;74.4
78455;SHT31;67751;51.986;5.696;2023-12-20T12:59:17;10.6;75.4
78455;SHT31;67751;51.986;5.696;2023-12-20T13:01:49;10.7;75.5
78455;SHT31;67751;51.986;5.696;2023-12-20T13:04:18;10.7;74.8
78455;SHT31;67751;51.986;5.696;2023-12-20T13:06:48;10.7;75.8
78455;SHT31;67751;51.986;5.696;2023-12-20T13:09:18;10.7;75.4
78455;SHT31;67751;51.986;5.696;2023-12-20T13:11:47;10.7;74.9
78455;SHT31;67751;51.986;5.696;2023-12-20T13:14:17;10.7;75.3
78455;SHT31;67751;51.986;5.696;2023-12-20T13:16:48;10.7;74.7
78455;SHT31;67751;51.986;5.696;2023-12-20T13:19:18;10.7;74.7
78455;SHT31;67751;51.986;5.696;2023-12-20T13:21:48;10.7;75.0
78455;SHT31;67751;51.986;5.696;2023-12-20T13:24:18;10.7;74.7
78455;SHT31;67751;51.986;5.696;2023-12-20T13:26:47;10.7;75.1
78455;SHT31;67751;51.986;5.696;2023-12-20T13:29:17;10.7;74.8
78455;SHT31;67751;51.986;5.696;2023-12-20T13:31:47;10.7;75.3
78455;SHT31;67751;51.986;5.696;2023-12-20T13:34:16;10.7;75.6
78455;SHT31;67751;51.986;5.696;2023-12-20T13:36:47;10.7;74.8
78455;SHT31;67751;51.986;5.696;2023-12-20T13:39:18;10.7;75.8
78455;SHT31;67751;51.986;5.696;2023-12-20T13:41:48;10.7;75.3
78455;SHT31;67751;51.986;5.696;2023-12-20T13:44:18;10.7;74.8
78455;SHT31;67751;51.986;5.696;2023-12-20T13:46:47;10.7;75.0
78455;SHT31;67751;51.986;5.696;2023-12-20T13:49:17;10.8;75.5
78455;SHT31;67751;51.986;5.696;2023-12-20T13:51:47;10.8;75.2
78455;SHT31;67751;51.986;5.696;2023-12-20T13:54:16;10.8;75.7
78455;SHT31;67751;51.986;5.696;2023-12-20T13:56:49;10.8;75.0
78455;SHT31;67751;51.986;5.696;2023-12-20T13:59:18;10.8;75.3
78455;SHT31;67751;51.986;5.696;2023-12-20T14:01:48;10.8;74.9
78455;SHT31;67751;51.986;5.696;2023-12-20T14:04:18;10.8;74.4
78455;SHT31;67751;51.986;5.696;2023-12-20T14:06:49;10.8;73.8
78455;SHT31;67751;51.986;5.696;2023-12-20T14:09:18;10.7;74.8
78455;SHT31;67751;51.986;5.696;2023-12-20T14:11:48;10.7;74.3
78455;SHT31;67751;51.986;5.696;2023-12-20T14:14:18;10.7;74.9
78455;SHT31;67751;51.986;5.696;2023-12-20T14:16:47;10.7;74.4
78455;SHT31;67751;51.986;5.696;2023-12-20T14:19:17;10.7;75.0
78455;SHT31;67751;51.986;5.696;2023-12-20T14:21:47;10.7;74.3
78455;SHT31;67751;51.986;5.696;2023-12-20T14:24:16;10.8;74.2
78455;SHT31;67751;51.986;5.696;2023-12-20T14:26:46;10.8;74.7
78455;SHT31;67751;51.986;5.696;2023-12-20T14:29:16;10.8;74.3
78455;SHT31;67751;51.986;5.696;2023-12-20T14:31:45;10.8;74.9
78455;SHT31;67751;51.986;5.696;2023-12-20T14:34:17;10.8;73.5
78455;SHT31;67751;51.986;5.696;2023-12-20T14:36:46;10.8;74.4
78455;SHT31;67751;51.986;5.696;2023-12-20T14:39:16;10.8;74.0
78455;SHT31;67751;51.986;5.696;2023-12-20T14:41:48;10.8;75.0
78455;SHT31;67751;51.986;5.696;2023-12-20T14:44:17;10.8;75.1
78455;SHT31;67751;51.986;5.696;2023-12-20T14:46:47;10.8;74.8
78455;SHT31;67751;51.986;5.696;2023-12-20T14:49:16;10.8;74.6
78455;SHT31;67751;51.986;5.696;2023-12-20T14:51:46;10.8;74.5
78455;SHT31;67751;51.986;5.696;2023-12-20T14:54:16;10.8;73.9
78455;SHT31;67751;51.986;5.696;2023-12-20T14:56:48;10.8;75.1
78455;SHT31;67751;51.986;5.696;2023-12-20T14:59:17;10.8;74.6
78455;SHT31;67751;51.986;5.696;2023-12-20T15:01:48;10.8;74.7
78455;SHT31;67751;51.986;5.696;2023-12-20T15:04:18;10.8;75.1
78455;SHT31;67751;51.986;5.696;2023-12-20T15:06:53;10.8;74.8
78455;SHT31;67751;51.986;5.696;2023-12-20T15:09:23;10.8;74.9
78455;SHT31;67751;51.986;5.696;2023-12-20T15:11:54;10.8;74.7
78455;SHT31;67751;51.986;5.696;2023-12-20T15:14:23;10.8;74.9
78455;SHT31;67751;51.986;5.696;2023-12-20T15:16:53;10.8;74.8
78455;SHT31;67751;51.986;5.696;2023-12-20T15:19:25;10.8;75.1
78455;SHT31;67751;51.986;5.696;2023-12-20T15:21:54;10.8;74.5
78455;SHT31;67751;51.986;5.696;2023-12-20T15:24:26;10.8;75.0
78455;SHT31;67751;51.986;5.696;2023-12-20T15:27:00;10.8;75.3
78455;SHT31;67751;51.986;5.696;2023-12-20T15:29:30;10.8;74.2
78455;SHT31;67751;51.986;5.696;2023-12-20T15:32:00;10.8;74.9
78455;SHT31;67751;51.986;5.696;2023-12-20T15:34:31;10.8;74.8
78455;SHT31;67751;51.986;5.696;2023-12-20T15:37:00;10.8;75.2
78455;SHT31;67751;51.986;5.696;2023-12-20T15:39:30;10.8;75.2
78455;SHT31;67751;51.986;5.696;2023-12-20T15:42:02;10.8;75.1
78455;SHT31;67751;51.986;5.696;2023-12-20T15:44:31;10.8;74.7
78455;SHT31;67751;51.986;5.696;2023-12-20T15:47:01;10.8;75.7
78455;SHT31;67751;51.986;5.696;2023-12-20T15:49:30;10.8;75.5
78455;SHT31;67751;51.986;5.696;2023-12-20T15:52:02;10.8;75.6
78455;SHT31;67751;51.986;5.696;2023-12-20T15:54:31;10.8;75.8
78455;SHT31;67751;51.986;5.696;2023-12-20T15:57:01;10.7;75.4
78455;SHT31;67751;51.986;5.696;2023-12-20T15:59:30;10.7;75.8
78455;SHT31;67751;51.986;5.696;2023-12-20T16:02:00;10.7;76.2
78455;SHT31;67751;51.986;5.696;2023-12-20T16:04:30;10.6;75.8
78455;SHT31;67751;51.986;5.696;2023-12-20T16:06:59;10.6;76.4
78455;SHT31;67751;51.986;5.696;2023-12-20T16:09:29;10.6;76.7
78455;SHT31;67751;51.986;5.696;2023-12-20T16:11:59;10.6;77.1
78455;SHT31;67751;51.986;5.696;2023-12-20T16:14:28;10.6;77.2
78455;SHT31;67751;51.986;5.696;2023-12-20T16:16:58;10.6;76.7
78455;SHT31;67751;51.986;5.696;2023-12-20T16:19:28;10.6;77.1
78455;SHT31;67751;51.986;5.696;2023-12-20T16:21:58;10.6;77.3
78455;SHT31;67751;51.986;5.696;2023-12-20T16:24:27;10.6;77.2
78455;SHT31;67751;51.986;5.696;2023-12-20T16:26:58;10.6;77.3
78455;SHT31;67751;51.986;5.696;2023-12-20T16:29:28;10.6;77.2
78455;SHT31;67751;51.986;5.696;2023-12-20T16:31:58;10.6;77.4